sensor_id;sensor_type;location;lat;lon;timestamp;temperature;humidity
62555;DHT22;48610;52.144;8.624;2022-12-11T00:01:22;1.60;99.90
62555;DHT22;48610;52.144;8.624;2022-12-11T00:04:22;1.50;99.90
62555;DHT22;48610;52.144;8.624;2022-12-11T00:07:23;1.50;99.90
62555;DHT22;48610;52.144;8.624;2022-12-11T00:10:24;1.60;99.90
62555;DHT22;48610;52.144;8.624;2022-12-11T00:13:25;1.60;99.90
62555;DHT22;48610;52.144;8.624;2022-12-11T00:16:25;1.60;99.90
62555;DHT22;48610;52.144;8.624;2022-12-11T00:19:26;1.60;99.90
62555;DHT22;48610;52.144;8.624;2022-12-11T00:22:29;1.60;99.90
62555;DHT22;48610;52.144;8.624;2022-12-11T00:25:29;1.70;99.90
62555;DHT22;48610;52.144;8.624;2022-12-11T00:28:30;1.60;99.90
62555;DHT22;48610;52.144;8.624;2022-12-11T00:31:30;1.60;99.90
62555;DHT22;48610;52.144;8.624;2022-12-11T00:34:31;1.60;99.90
62555;DHT22;48610;52.144;8.624;2022-12-11T00:37:32;1.60;99.90
62555;DHT22;48610;52.144;8.624;2022-12-11T00:40:36;1.50;99.90
62555;DHT22;48610;52.144;8.624;2022-12-11T00:43:36;1.50;99.90
62555;DHT22;48610;52.144;8.624;2022-12-11T00:46:37;1.50;99.90
62555;DHT22;48610;52.144;8.624;2022-12-11T00:49:38;1.70;99.90
62555;DHT22;48610;52.144;8.624;2022-12-11T00:52:38;1.60;99.90
62555;DHT22;48610;52.144;8.624;2022-12-11T00:55:41;1.50;99.90
62555;DHT22;48610;52.144;8.624;2022-12-11T00:58:42;1.60;99.90
62555;DHT22;48610;52.144;8.624;2022-12-11T01:01:42;1.60;99.90
62555;DHT22;48610;52.144;8.624;2022-12-11T01:04:43;1.60;99.90
62555;DHT22;48610;52.144;8.624;2022-12-11T01:07:43;1.60;99.90
62555;DHT22;48610;52.144;8.624;2022-12-11T01:10:44;1.60;99.90
62555;DHT22;48610;52.144;8.624;2022-12-11T01:13:45;1.50;99.90
62555;DHT22;48610;52.144;8.624;2022-12-11T01:16:45;1.50;99.90
62555;DHT22;48610;52.144;8.624;2022-12-11T01:19:46;1.50;99.90
62555;DHT22;48610;52.144;8.624;2022-12-11T01:22:47;1.40;99.90
62555;DHT22;48610;52.144;8.624;2022-12-11T01:25:48;1.50;99.90
62555;DHT22;48610;52.144;8.624;2022-12-11T01:28:50;1.60;99.90
62555;DHT22;48610;52.144;8.624;2022-12-11T01:31:50;1.50;99.90
62555;DHT22;48610;52.144;8.624;2022-12-11T01:34:51;1.40;99.90
62555;DHT22;48610;52.144;8.624;2022-12-11T01:37:52;1.40;99.90
62555;DHT22;48610;52.144;8.624;2022-12-11T01:40:52;1.30;99.90
62555;DHT22;48610;52.144;8.624;2022-12-11T01:45:00;1.40;99.90
62555;DHT22;48610;52.144;8.624;2022-12-11T01:47:18;1.30;99.90
62555;DHT22;48610;52.144;8.624;2022-12-11T01:50:19;1.40;99.90
62555;DHT22;48610;52.144;8.624;2022-12-11T01:53:22;1.40;99.90
62555;DHT22;48610;52.144;8.624;2022-12-11T01:56:24;1.40;99.90
62555;DHT22;48610;52.144;8.624;2022-12-11T01:59:28;1.50;99.90
62555;DHT22;48610;52.144;8.624;2022-12-11T02:02:30;1.40;99.90
62555;DHT22;48610;52.144;8.624;2022-12-11T02:05:33;1.40;99.90
62555;DHT22;48610;52.144;8.624;2022-12-11T02:08:33;1.40;99.90
62555;DHT22;48610;52.144;8.624;2022-12-11T02:21:19;1.50;99.90
62555;DHT22;48610;52.144;8.624;2022-12-11T02:27:30;1.40;99.90
62555;DHT22;48610;52.144;8.624;2022-12-11T02:30:36;1.40;99.90
62555;DHT22;48610;52.144;8.624;2022-12-11T02:33:47;1.40;99.90
62555;DHT22;48610;52.144;8.624;2022-12-11T02:36:54;1.30;99.90
62555;DHT22;48610;52.144;8.624;2022-12-11T02:39:57;1.50;99.90
62555;DHT22;48610;52.144;8.624;2022-12-11T02:43:02;1.40;99.90
62555;DHT22;48610;52.144;8.624;2022-12-11T02:46:06;1.30;99.90
62555;DHT22;48610;52.144;8.624;2022-12-11T02:49:08;1.40;99.90
62555;DHT22;48610;52.144;8.624;2022-12-11T02:52:11;1.50;99.90
62555;DHT22;48610;52.144;8.624;2022-12-11T02:55:14;1.50;99.90
62555;DHT22;48610;52.144;8.624;2022-12-11T02:58:22;1.50;99.90
62555;DHT22;48610;52.144;8.624;2022-12-11T03:01:24;1.60;99.90
62555;DHT22;48610;52.144;8.624;2022-12-11T03:04:25;1.60;99.90
62555;DHT22;48610;52.144;8.624;2022-12-11T03:07:28;1.50;99.90
62555;DHT22;48610;52.144;8.624;2022-12-11T03:10:31;1.50;99.90
62555;DHT22;48610;52.144;8.624;2022-12-11T03:13:31;1.40;99.90
62555;DHT22;48610;52.144;8.624;2022-12-11T03:17:22;1.50;99.90
62555;DHT22;48610;52.144;8.624;2022-12-11T03:20:11;1.40;99.90
62555;DHT22;48610;52.144;8.624;2022-12-11T03:23:19;1.50;99.90
62555;DHT22;48610;52.144;8.624;2022-12-11T03:26:22;1.50;99.90
62555;DHT22;48610;52.144;8.624;2022-12-11T03:29:39;1.40;99.90
62555;DHT22;48610;52.144;8.624;2022-12-11T03:32:52;1.40;99.90
62555;DHT22;48610;52.144;8.624;2022-12-11T03:35:55;1.40;99.90
62555;DHT22;48610;52.144;8.624;2022-12-11T03:39:09;1.40;99.90
62555;DHT22;48610;52.144;8.624;2022-12-11T03:42:13;1.30;99.90
62555;DHT22;48610;52.144;8.624;2022-12-11T03:45:17;1.30;99.90
62555;DHT22;48610;52.144;8.624;2022-12-11T03:48:20;1.40;99.90
62555;DHT22;48610;52.144;8.624;2022-12-11T03:51:22;1.50;99.90
62555;DHT22;48610;52.144;8.624;2022-12-11T03:54:23;1.40;99.90
62555;DHT22;48610;52.144;8.624;2022-12-11T03:57:28;1.50;99.90
62555;DHT22;48610;52.144;8.624;2022-12-11T04:00:31;1.50;99.90
62555;DHT22;48610;52.144;8.624;2022-12-11T04:03:31;1.40;99.90
62555;DHT22;48610;52.144;8.624;2022-12-11T04:06:32;1.40;99.90
62555;DHT22;48610;52.144;8.624;2022-12-11T04:09:33;1.40;99.90
62555;DHT22;48610;52.144;8.624;2022-12-11T04:12:34;1.40;99.90
62555;DHT22;48610;52.144;8.624;2022-12-11T04:15:35;1.20;99.90
62555;DHT22;48610;52.144;8.624;2022-12-11T04:18:36;1.30;99.90
62555;DHT22;48610;52.144;8.624;2022-12-11T04:21:55;1.20;99.90
62555;DHT22;48610;52.144;8.624;2022-12-11T04:25:34;1.30;99.90
62555;DHT22;48610;52.144;8.624;2022-12-11T04:28:35;1.30;99.90
62555;DHT22;48610;52.144;8.624;2022-12-11T04:31:36;1.30;99.90
62555;DHT22;48610;52.144;8.624;2022-12-11T04:34:36;1.40;99.90
62555;DHT22;48610;52.144;8.624;2022-12-11T04:37:37;1.40;99.90
62555;DHT22;48610;52.144;8.624;2022-12-11T04:40:38;1.40;99.90
62555;DHT22;48610;52.144;8.624;2022-12-11T04:43:39;1.40;99.90
62555;DHT22;48610;52.144;8.624;2022-12-11T04:46:39;1.40;99.90
62555;DHT22;48610;52.144;8.624;2022-12-11T04:49:40;1.30;99.90
62555;DHT22;48610;52.144;8.624;2022-12-11T04:52:41;1.30;99.90
62555;DHT22;48610;52.144;8.624;2022-12-11T04:55:42;1.00;99.90
62555;DHT22;48610;52.144;8.624;2022-12-11T04:58:43;0.80;99.90
62555;DHT22;48610;52.144;8.624;2022-12-11T05:01:44;0.90;99.90
62555;DHT22;48610;52.144;8.624;2022-12-11T05:04:45;1.10;99.90
62555;DHT22;48610;52.144;8.624;2022-12-11T05:07:45;1.20;99.90
62555;DHT22;48610;52.144;8.624;2022-12-11T05:11:00;1.00;99.90
62555;DHT22;48610;52.144;8.624;2022-12-11T05:14:01;1.00;99.90
62555;DHT22;48610;52.144;8.624;2022-12-11T05:17:02;1.00;99.90
62555;DHT22;48610;52.144;8.624;2022-12-11T05:20:03;1.20;99.90
62555;DHT22;48610;52.144;8.624;2022-12-11T05:23:03;1.20;99.90
62555;DHT22;48610;52.144;8.624;2022-12-11T05:26:07;1.20;99.90
62555;DHT22;48610;52.144;8.624;2022-12-11T05:29:08;1.30;99.90
62555;DHT22;48610;52.144;8.624;2022-12-11T05:32:08;1.30;99.90
62555;DHT22;48610;52.144;8.624;2022-12-11T05:35:09;1.40;99.90
62555;DHT22;48610;52.144;8.624;2022-12-11T05:38:10;1.30;99.90
62555;DHT22;48610;52.144;8.624;2022-12-11T05:41:13;1.30;99.90
62555;DHT22;48610;52.144;8.624;2022-12-11T05:44:13;1.40;99.90
62555;DHT22;48610;52.144;8.624;2022-12-11T05:47:14;1.40;99.90
62555;DHT22;48610;52.144;8.624;2022-12-11T05:50:16;1.50;99.90
62555;DHT22;48610;52.144;8.624;2022-12-11T05:53:16;1.50;99.90
62555;DHT22;48610;52.144;8.624;2022-12-11T05:56:20;1.50;99.90
62555;DHT22;48610;52.144;8.624;2022-12-11T05:59:21;1.50;99.90
62555;DHT22;48610;52.144;8.624;2022-12-11T06:02:21;1.50;99.90
62555;DHT22;48610;52.144;8.624;2022-12-11T06:05:22;1.40;99.90
62555;DHT22;48610;52.144;8.624;2022-12-11T06:08:22;1.50;99.90
62555;DHT22;48610;52.144;8.624;2022-12-11T06:11:25;1.40;99.90
62555;DHT22;48610;52.144;8.624;2022-12-11T06:14:25;1.40;99.90
62555;DHT22;48610;52.144;8.624;2022-12-11T06:17:26;1.40;99.90
62555;DHT22;48610;52.144;8.624;2022-12-11T06:20:33;1.40;99.90
62555;DHT22;48610;52.144;8.624;2022-12-11T06:23:34;1.40;99.90
62555;DHT22;48610;52.144;8.624;2022-12-11T06:26:34;1.30;99.90
62555;DHT22;48610;52.144;8.624;2022-12-11T06:29:35;1.30;99.90
62555;DHT22;48610;52.144;8.624;2022-12-11T06:32:36;1.20;99.90
62555;DHT22;48610;52.144;8.624;2022-12-11T06:35:36;1.30;99.90
62555;DHT22;48610;52.144;8.624;2022-12-11T06:38:37;1.40;99.90
62555;DHT22;48610;52.144;8.624;2022-12-11T06:41:38;1.40;99.90
62555;DHT22;48610;52.144;8.624;2022-12-11T06:44:39;1.40;99.90
62555;DHT22;48610;52.144;8.624;2022-12-11T06:47:39;1.40;99.90
62555;DHT22;48610;52.144;8.624;2022-12-11T06:50:40;1.50;99.90
62555;DHT22;48610;52.144;8.624;2022-12-11T06:53:41;1.60;99.90
62555;DHT22;48610;52.144;8.624;2022-12-11T06:56:41;1.30;99.90
62555;DHT22;48610;52.144;8.624;2022-12-11T06:59:42;1.30;99.90
62555;DHT22;48610;52.144;8.624;2022-12-11T07:02:43;1.40;99.90
62555;DHT22;48610;52.144;8.624;2022-12-11T07:05:43;1.30;99.90
62555;DHT22;48610;52.144;8.624;2022-12-11T07:08:44;1.20;99.90
62555;DHT22;48610;52.144;8.624;2022-12-11T07:11:45;1.20;99.90
62555;DHT22;48610;52.144;8.624;2022-12-11T07:14:45;1.30;99.90
62555;DHT22;48610;52.144;8.624;2022-12-11T07:17:46;1.20;99.90
62555;DHT22;48610;52.144;8.624;2022-12-11T07:20:47;1.20;99.90
62555;DHT22;48610;52.144;8.624;2022-12-11T07:23:48;1.10;99.90
62555;DHT22;48610;52.144;8.624;2022-12-11T07:26:49;1.20;99.90
62555;DHT22;48610;52.144;8.624;2022-12-11T07:29:50;1.30;99.90
62555;DHT22;48610;52.144;8.624;2022-12-11T07:32:51;1.30;99.90
62555;DHT22;48610;52.144;8.624;2022-12-11T07:35:51;1.20;99.90
62555;DHT22;48610;52.144;8.624;2022-12-11T07:38:52;1.30;99.90
62555;DHT22;48610;52.144;8.624;2022-12-11T07:41:53;1.40;99.90
62555;DHT22;48610;52.144;8.624;2022-12-11T07:44:53;1.40;99.90
62555;DHT22;48610;52.144;8.624;2022-12-11T07:47:54;1.40;99.90
62555;DHT22;48610;52.144;8.624;2022-12-11T07:50:54;1.40;99.90
62555;DHT22;48610;52.144;8.624;2022-12-11T07:54:01;1.30;99.90
62555;DHT22;48610;52.144;8.624;2022-12-11T07:57:02;1.20;99.90
62555;DHT22;48610;52.144;8.624;2022-12-11T08:00:03;1.20;99.90
62555;DHT22;48610;52.144;8.624;2022-12-11T08:03:04;1.20;99.90
62555;DHT22;48610;52.144;8.624;2022-12-11T08:06:05;1.30;99.90
62555;DHT22;48610;52.144;8.624;2022-12-11T08:09:08;1.30;99.90
62555;DHT22;48610;52.144;8.624;2022-12-11T08:12:09;1.30;99.90
62555;DHT22;48610;52.144;8.624;2022-12-11T08:15:09;1.20;99.90
62555;DHT22;48610;52.144;8.624;2022-12-11T08:18:10;1.10;99.90
62555;DHT22;48610;52.144;8.624;2022-12-11T08:21:24;1.10;99.90
62555;DHT22;48610;52.144;8.624;2022-12-11T08:24:26;1.20;99.90
62555;DHT22;48610;52.144;8.624;2022-12-11T08:27:28;1.20;99.90
62555;DHT22;48610;52.144;8.624;2022-12-11T08:30:29;1.30;99.90
62555;DHT22;48610;52.144;8.624;2022-12-11T08:33:29;1.40;99.90
62555;DHT22;48610;52.144;8.624;2022-12-11T08:36:30;1.50;99.90
62555;DHT22;48610;52.144;8.624;2022-12-11T08:39:31;1.50;99.90
62555;DHT22;48610;52.144;8.624;2022-12-11T08:42:31;1.40;99.90
62555;DHT22;48610;52.144;8.624;2022-12-11T08:45:32;1.30;99.90
62555;DHT22;48610;52.144;8.624;2022-12-11T08:48:33;1.30;99.90
62555;DHT22;48610;52.144;8.624;2022-12-11T08:51:34;1.40;99.90
62555;DHT22;48610;52.144;8.624;2022-12-11T08:54:36;1.40;99.90
62555;DHT22;48610;52.144;8.624;2022-12-11T08:57:37;1.50;99.90
62555;DHT22;48610;52.144;8.624;2022-12-11T09:00:41;1.40;99.90
62555;DHT22;48610;52.144;8.624;2022-12-11T09:03:41;1.50;99.90
62555;DHT22;48610;52.144;8.624;2022-12-11T09:06:42;1.50;99.90
62555;DHT22;48610;52.144;8.624;2022-12-11T09:09:43;1.30;99.90
62555;DHT22;48610;52.144;8.624;2022-12-11T09:12:44;1.10;99.90
62555;DHT22;48610;52.144;8.624;2022-12-11T09:15:44;1.10;99.90
62555;DHT22;48610;52.144;8.624;2022-12-11T09:18:46;1.20;99.90
62555;DHT22;48610;52.144;8.624;2022-12-11T09:21:47;1.30;99.90
62555;DHT22;48610;52.144;8.624;2022-12-11T09:24:48;1.30;99.90
62555;DHT22;48610;52.144;8.624;2022-12-11T09:27:49;1.40;99.90
62555;DHT22;48610;52.144;8.624;2022-12-11T09:30:50;1.40;99.90
62555;DHT22;48610;52.144;8.624;2022-12-11T09:33:54;1.50;99.90
62555;DHT22;48610;52.144;8.624;2022-12-11T09:36:55;1.50;99.90
62555;DHT22;48610;52.144;8.624;2022-12-11T09:39:56;1.50;99.90
62555;DHT22;48610;52.144;8.624;2022-12-11T09:46:15;1.60;99.90
62555;DHT22;48610;52.144;8.624;2022-12-11T09:49:26;1.60;99.90
62555;DHT22;48610;52.144;8.624;2022-12-11T09:59:22;1.60;99.90
62555;DHT22;48610;52.144;8.624;2022-12-11T10:16:03;1.40;99.90
62555;DHT22;48610;52.144;8.624;2022-12-11T10:19:19;1.50;99.90
62555;DHT22;48610;52.144;8.624;2022-12-11T10:22:23;1.30;99.90
62555;DHT22;48610;52.144;8.624;2022-12-11T10:25:31;1.30;99.90
62555;DHT22;48610;52.144;8.624;2022-12-11T10:28:35;1.30;99.90
62555;DHT22;48610;52.144;8.624;2022-12-11T10:35:00;1.40;99.90
62555;DHT22;48610;52.144;8.624;2022-12-11T10:38:20;1.40;99.90
62555;DHT22;48610;52.144;8.624;2022-12-11T10:41:39;1.50;99.90
62555;DHT22;48610;52.144;8.624;2022-12-11T10:44:41;1.60;99.90
62555;DHT22;48610;52.144;8.624;2022-12-11T10:48:05;1.70;99.90
62555;DHT22;48610;52.144;8.624;2022-12-11T10:51:06;1.60;99.90
62555;DHT22;48610;52.144;8.624;2022-12-11T10:54:28;1.60;99.90
62555;DHT22;48610;52.144;8.624;2022-12-11T10:57:34;1.70;99.90
62555;DHT22;48610;52.144;8.624;2022-12-11T11:00:40;1.60;99.90
62555;DHT22;48610;52.144;8.624;2022-12-11T11:03:56;1.50;99.90
62555;DHT22;48610;52.144;8.624;2022-12-11T11:07:26;1.60;99.90
62555;DHT22;48610;52.144;8.624;2022-12-11T11:10:27;1.50;99.90
62555;DHT22;48610;52.144;8.624;2022-12-11T11:13:29;1.40;99.90
62555;DHT22;48610;52.144;8.624;2022-12-11T11:16:30;1.40;99.90
62555;DHT22;48610;52.144;8.624;2022-12-11T11:19:33;1.50;99.90
62555;DHT22;48610;52.144;8.624;2022-12-11T11:22:39;1.50;99.90
62555;DHT22;48610;52.144;8.624;2022-12-11T11:25:49;1.50;99.90
62555;DHT22;48610;52.144;8.624;2022-12-11T11:28:56;1.50;99.90
62555;DHT22;48610;52.144;8.624;2022-12-11T11:32:03;1.50;99.90
62555;DHT22;48610;52.144;8.624;2022-12-11T11:35:18;1.40;99.90
62555;DHT22;48610;52.144;8.624;2022-12-11T11:38:45;1.50;99.90
62555;DHT22;48610;52.144;8.624;2022-12-11T11:42:01;1.60;99.90
62555;DHT22;48610;52.144;8.624;2022-12-11T11:45:04;1.60;99.90
62555;DHT22;48610;52.144;8.624;2022-12-11T11:48:20;1.50;99.90
62555;DHT22;48610;52.144;8.624;2022-12-11T11:51:33;1.40;99.90
62555;DHT22;48610;52.144;8.624;2022-12-11T11:54:42;1.20;99.90
62555;DHT22;48610;52.144;8.624;2022-12-11T12:00:55;1.40;99.90
62555;DHT22;48610;52.144;8.624;2022-12-11T12:03:56;1.50;99.90
62555;DHT22;48610;52.144;8.624;2022-12-11T12:07:10;1.50;99.90
62555;DHT22;48610;52.144;8.624;2022-12-11T12:13:52;1.60;99.90
62555;DHT22;48610;52.144;8.624;2022-12-11T12:20:10;1.50;99.90
62555;DHT22;48610;52.144;8.624;2022-12-11T12:30:21;1.40;99.90
62555;DHT22;48610;52.144;8.624;2022-12-11T12:33:52;1.40;99.90
62555;DHT22;48610;52.144;8.624;2022-12-11T12:36:56;1.40;99.90
62555;DHT22;48610;52.144;8.624;2022-12-11T12:50:21;1.30;99.90
62555;DHT22;48610;52.144;8.624;2022-12-11T12:53:25;1.10;99.90
62555;DHT22;48610;52.144;8.624;2022-12-11T12:56:29;1.20;99.90
62555;DHT22;48610;52.144;8.624;2022-12-11T12:59:31;1.20;99.90
62555;DHT22;48610;52.144;8.624;2022-12-11T13:02:31;1.20;99.90
62555;DHT22;48610;52.144;8.624;2022-12-11T13:05:33;1.30;99.90
62555;DHT22;48610;52.144;8.624;2022-12-11T13:08:55;1.20;99.90
62555;DHT22;48610;52.144;8.624;2022-12-11T13:11:56;1.40;99.90
62555;DHT22;48610;52.144;8.624;2022-12-11T13:14:57;1.50;99.90
62555;DHT22;48610;52.144;8.624;2022-12-11T13:18:00;1.50;99.90
62555;DHT22;48610;52.144;8.624;2022-12-11T13:21:33;1.40;99.90
62555;DHT22;48610;52.144;8.624;2022-12-11T13:25:16;1.50;99.90
62555;DHT22;48610;52.144;8.624;2022-12-11T13:28:22;1.50;99.90
62555;DHT22;48610;52.144;8.624;2022-12-11T13:31:36;1.40;99.90
62555;DHT22;48610;52.144;8.624;2022-12-11T13:34:39;1.40;99.90
62555;DHT22;48610;52.144;8.624;2022-12-11T13:37:45;1.50;99.90
62555;DHT22;48610;52.144;8.624;2022-12-11T13:40:52;1.40;99.90
62555;DHT22;48610;52.144;8.624;2022-12-11T13:43:54;1.20;99.90
62555;DHT22;48610;52.144;8.624;2022-12-11T13:46:58;1.30;99.90
62555;DHT22;48610;52.144;8.624;2022-12-11T13:50:21;1.30;99.90
62555;DHT22;48610;52.144;8.624;2022-12-11T13:53:23;1.20;99.90
62555;DHT22;48610;52.144;8.624;2022-12-11T13:56:23;1.30;99.90
62555;DHT22;48610;52.144;8.624;2022-12-11T14:00:03;1.30;99.90
62555;DHT22;48610;52.144;8.624;2022-12-11T14:03:04;1.30;99.90
62555;DHT22;48610;52.144;8.624;2022-12-11T14:06:10;1.30;99.90
62555;DHT22;48610;52.144;8.624;2022-12-11T14:09:17;1.40;99.90
62555;DHT22;48610;52.144;8.624;2022-12-11T14:12:19;1.40;99.90
62555;DHT22;48610;52.144;8.624;2022-12-11T14:15:21;1.40;99.90
62555;DHT22;48610;52.144;8.624;2022-12-11T14:18:25;1.40;99.90
62555;DHT22;48610;52.144;8.624;2022-12-11T14:21:26;1.40;99.90
62555;DHT22;48610;52.144;8.624;2022-12-11T14:24:28;1.40;99.90
62555;DHT22;48610;52.144;8.624;2022-12-11T14:27:29;1.40;99.90
62555;DHT22;48610;52.144;8.624;2022-12-11T14:30:32;1.30;99.90
62555;DHT22;48610;52.144;8.624;2022-12-11T14:33:40;1.40;99.90
62555;DHT22;48610;52.144;8.624;2022-12-11T14:36:42;1.40;99.90
62555;DHT22;48610;52.144;8.624;2022-12-11T14:39:52;1.20;99.90
62555;DHT22;48610;52.144;8.624;2022-12-11T14:42:57;1.20;99.90
62555;DHT22;48610;52.144;8.624;2022-12-11T14:46:21;1.30;99.90
62555;DHT22;48610;52.144;8.624;2022-12-11T14:52:35;1.40;99.90
62555;DHT22;48610;52.144;8.624;2022-12-11T14:55:37;1.40;99.90
62555;DHT22;48610;52.144;8.624;2022-12-11T14:58:46;1.40;99.90
62555;DHT22;48610;52.144;8.624;2022-12-11T15:02:16;1.40;99.90
62555;DHT22;48610;52.144;8.624;2022-12-11T15:05:20;1.40;99.90
62555;DHT22;48610;52.144;8.624;2022-12-11T15:08:29;1.40;99.90
62555;DHT22;48610;52.144;8.624;2022-12-11T15:11:31;1.40;99.90
62555;DHT22;48610;52.144;8.624;2022-12-11T15:14:32;1.50;99.90
62555;DHT22;48610;52.144;8.624;2022-12-11T15:17:34;1.50;99.90
62555;DHT22;48610;52.144;8.624;2022-12-11T15:20:36;1.50;99.90
62555;DHT22;48610;52.144;8.624;2022-12-11T15:23:54;1.40;99.90
62555;DHT22;48610;52.144;8.624;2022-12-11T15:26:58;1.40;99.90
62555;DHT22;48610;52.144;8.624;2022-12-11T15:33:18;1.40;99.90
62555;DHT22;48610;52.144;8.624;2022-12-11T15:36:30;1.40;99.90
62555;DHT22;48610;52.144;8.624;2022-12-11T15:39:31;1.40;99.90
62555;DHT22;48610;52.144;8.624;2022-12-11T15:42:39;1.40;99.90
62555;DHT22;48610;52.144;8.624;2022-12-11T15:45:40;1.40;99.90
62555;DHT22;48610;52.144;8.624;2022-12-11T15:48:43;1.50;99.90
62555;DHT22;48610;52.144;8.624;2022-12-11T15:51:43;1.50;99.90
62555;DHT22;48610;52.144;8.624;2022-12-11T15:54:44;1.40;99.90
62555;DHT22;48610;52.144;8.624;2022-12-11T15:57:48;1.40;99.90
62555;DHT22;48610;52.144;8.624;2022-12-11T16:00:50;1.40;99.90
62555;DHT22;48610;52.144;8.624;2022-12-11T16:03:50;1.40;99.90
62555;DHT22;48610;52.144;8.624;2022-12-11T16:06:51;1.50;99.90
62555;DHT22;48610;52.144;8.624;2022-12-11T16:09:52;1.50;99.90
62555;DHT22;48610;52.144;8.624;2022-12-11T16:12:53;1.60;99.90
62555;DHT22;48610;52.144;8.624;2022-12-11T16:15:58;1.60;99.90
62555;DHT22;48610;52.144;8.624;2022-12-11T16:18:59;1.50;99.90
62555;DHT22;48610;52.144;8.624;2022-12-11T16:22:00;1.50;99.90
62555;DHT22;48610;52.144;8.624;2022-12-11T16:25:01;1.60;99.90
62555;DHT22;48610;52.144;8.624;2022-12-11T16:28:02;1.60;99.90
62555;DHT22;48610;52.144;8.624;2022-12-11T16:31:02;1.70;99.90
62555;DHT22;48610;52.144;8.624;2022-12-11T16:34:03;1.60;99.90
62555;DHT22;48610;52.144;8.624;2022-12-11T16:37:05;1.50;99.90
62555;DHT22;48610;52.144;8.624;2022-12-11T16:40:06;1.10;99.90
62555;DHT22;48610;52.144;8.624;2022-12-11T16:43:07;1.20;99.90
62555;DHT22;48610;52.144;8.624;2022-12-11T16:46:08;1.40;99.90
62555;DHT22;48610;52.144;8.624;2022-12-11T16:49:08;1.50;99.90
62555;DHT22;48610;52.144;8.624;2022-12-11T16:52:09;1.40;99.90
62555;DHT22;48610;52.144;8.624;2022-12-11T16:55:11;1.50;99.90
62555;DHT22;48610;52.144;8.624;2022-12-11T16:58:11;1.50;99.90
62555;DHT22;48610;52.144;8.624;2022-12-11T17:01:19;1.50;99.90
62555;DHT22;48610;52.144;8.624;2022-12-11T17:04:19;1.50;99.90
62555;DHT22;48610;52.144;8.624;2022-12-11T17:07:20;1.50;99.90
62555;DHT22;48610;52.144;8.624;2022-12-11T17:10:20;1.40;99.90
62555;DHT22;48610;52.144;8.624;2022-12-11T17:13:21;1.40;99.90
62555;DHT22;48610;52.144;8.624;2022-12-11T17:16:23;1.40;99.90
62555;DHT22;48610;52.144;8.624;2022-12-11T17:19:25;1.40;99.90
62555;DHT22;48610;52.144;8.624;2022-12-11T17:22:26;1.50;99.90
62555;DHT22;48610;52.144;8.624;2022-12-11T17:25:27;1.50;99.90
62555;DHT22;48610;52.144;8.624;2022-12-11T17:28:28;1.30;99.90
62555;DHT22;48610;52.144;8.624;2022-12-11T17:31:29;1.30;99.90
62555;DHT22;48610;52.144;8.624;2022-12-11T17:34:29;1.30;99.90
62555;DHT22;48610;52.144;8.624;2022-12-11T17:37:30;1.40;99.90
62555;DHT22;48610;52.144;8.624;2022-12-11T17:40:31;1.40;99.90
62555;DHT22;48610;52.144;8.624;2022-12-11T17:43:31;1.50;99.90
62555;DHT22;48610;52.144;8.624;2022-12-11T17:46:32;1.40;99.90
62555;DHT22;48610;52.144;8.624;2022-12-11T17:49:33;1.30;99.90
62555;DHT22;48610;52.144;8.624;2022-12-11T17:52:33;1.40;99.90
62555;DHT22;48610;52.144;8.624;2022-12-11T17:55:36;1.40;99.90
62555;DHT22;48610;52.144;8.624;2022-12-11T17:58:37;1.40;99.90
62555;DHT22;48610;52.144;8.624;2022-12-11T18:01:37;1.40;99.90
62555;DHT22;48610;52.144;8.624;2022-12-11T18:04:38;1.40;99.90
62555;DHT22;48610;52.144;8.624;2022-12-11T18:07:39;1.30;99.90
62555;DHT22;48610;52.144;8.624;2022-12-11T18:10:40;1.30;99.90
62555;DHT22;48610;52.144;8.624;2022-12-11T18:13:41;1.40;99.90
62555;DHT22;48610;52.144;8.624;2022-12-11T18:16:42;1.40;99.90
62555;DHT22;48610;52.144;8.624;2022-12-11T18:19:43;1.20;99.90
62555;DHT22;48610;52.144;8.624;2022-12-11T18:22:44;1.20;99.90
62555;DHT22;48610;52.144;8.624;2022-12-11T18:25:44;1.30;99.90
62555;DHT22;48610;52.144;8.624;2022-12-11T18:28:45;1.40;99.90
62555;DHT22;48610;52.144;8.624;2022-12-11T18:31:46;1.40;99.90
62555;DHT22;48610;52.144;8.624;2022-12-11T18:34:47;1.40;99.90
62555;DHT22;48610;52.144;8.624;2022-12-11T18:37:47;1.40;99.90
62555;DHT22;48610;52.144;8.624;2022-12-11T18:40:48;1.40;99.90
62555;DHT22;48610;52.144;8.624;2022-12-11T18:43:49;1.50;99.90
62555;DHT22;48610;52.144;8.624;2022-12-11T18:46:50;1.50;99.90
62555;DHT22;48610;52.144;8.624;2022-12-11T18:49:50;1.50;99.90
62555;DHT22;48610;52.144;8.624;2022-12-11T18:52:53;1.50;99.90
62555;DHT22;48610;52.144;8.624;2022-12-11T18:55:53;1.50;99.90
62555;DHT22;48610;52.144;8.624;2022-12-11T18:58:54;1.50;99.90
62555;DHT22;48610;52.144;8.624;2022-12-11T19:01:55;1.50;99.90
62555;DHT22;48610;52.144;8.624;2022-12-11T19:04:56;1.50;99.90
62555;DHT22;48610;52.144;8.624;2022-12-11T19:07:57;1.50;99.90
62555;DHT22;48610;52.144;8.624;2022-12-11T19:10:58;1.50;99.90
62555;DHT22;48610;52.144;8.624;2022-12-11T19:13:58;1.50;99.90
62555;DHT22;48610;52.144;8.624;2022-12-11T19:16:59;1.50;99.90
62555;DHT22;48610;52.144;8.624;2022-12-11T19:20:00;1.50;99.90
62555;DHT22;48610;52.144;8.624;2022-12-11T19:23:00;1.50;99.90
62555;DHT22;48610;52.144;8.624;2022-12-11T19:26:01;1.50;99.90
62555;DHT22;48610;52.144;8.624;2022-12-11T19:29:03;1.40;99.90
62555;DHT22;48610;52.144;8.624;2022-12-11T19:32:03;1.40;99.90
62555;DHT22;48610;52.144;8.624;2022-12-11T19:35:04;1.40;99.90
62555;DHT22;48610;52.144;8.624;2022-12-11T19:38:05;1.40;99.90
62555;DHT22;48610;52.144;8.624;2022-12-11T19:41:22;1.40;99.90
62555;DHT22;48610;52.144;8.624;2022-12-11T19:44:23;1.40;99.90
62555;DHT22;48610;52.144;8.624;2022-12-11T19:47:24;1.50;99.90
62555;DHT22;48610;52.144;8.624;2022-12-11T19:50:24;1.40;99.90
62555;DHT22;48610;52.144;8.624;2022-12-11T19:53:25;1.40;99.90
62555;DHT22;48610;52.144;8.624;2022-12-11T19:56:26;1.50;99.90
62555;DHT22;48610;52.144;8.624;2022-12-11T19:59:26;1.50;99.90
62555;DHT22;48610;52.144;8.624;2022-12-11T20:02:27;1.40;99.90
62555;DHT22;48610;52.144;8.624;2022-12-11T20:05:27;1.40;99.90
62555;DHT22;48610;52.144;8.624;2022-12-11T20:08:28;1.40;99.90
62555;DHT22;48610;52.144;8.624;2022-12-11T20:11:30;1.50;99.90
62555;DHT22;48610;52.144;8.624;2022-12-11T20:14:31;1.40;99.90
62555;DHT22;48610;52.144;8.624;2022-12-11T20:17:32;1.50;99.90
62555;DHT22;48610;52.144;8.624;2022-12-11T20:20:32;1.50;99.90
62555;DHT22;48610;52.144;8.624;2022-12-11T20:23:33;1.60;99.90
62555;DHT22;48610;52.144;8.624;2022-12-11T20:26:35;1.60;99.90
62555;DHT22;48610;52.144;8.624;2022-12-11T20:29:37;1.50;99.90
62555;DHT22;48610;52.144;8.624;2022-12-11T20:32:38;1.50;99.90
62555;DHT22;48610;52.144;8.624;2022-12-11T20:35:39;1.50;99.90
62555;DHT22;48610;52.144;8.624;2022-12-11T20:38:40;1.50;99.90
62555;DHT22;48610;52.144;8.624;2022-12-11T20:41:41;1.50;99.90
62555;DHT22;48610;52.144;8.624;2022-12-11T20:44:41;1.40;99.90
62555;DHT22;48610;52.144;8.624;2022-12-11T20:47:42;1.40;99.90
62555;DHT22;48610;52.144;8.624;2022-12-11T20:50:43;1.30;99.90